createdAt,value
2018-08-23T00:01:35.386Z,99.90
2018-08-23T00:04:10.174Z,99.90
2018-08-23T00:06:42.398Z,99.90
2018-08-23T00:09:10.802Z,99.90
2018-08-23T00:11:44.519Z,99.90
2018-08-23T00:16:45.247Z,99.90
2018-08-23T00:19:13.915Z,99.90
2018-08-23T00:21:45.438Z,99.90
2018-08-23T00:24:15.391Z,99.90
2018-08-23T00:26:47.133Z,99.90
2018-08-23T00:29:18.754Z,99.90
2018-08-23T00:31:51.826Z,99.90
2018-08-23T00:34:20.885Z,99.90
2018-08-23T00:36:49.285Z,99.90
2018-08-23T00:39:17.679Z,99.90
2018-08-23T00:41:50.306Z,99.90
2018-08-23T00:44:18.783Z,99.90
2018-08-23T00:46:47.199Z,99.90
2018-08-23T00:49:15.987Z,99.90
2018-08-23T00:51:45.745Z,99.90
2018-08-23T00:54:14.150Z,99.90
2018-08-23T00:56:42.650Z,99.90
2018-08-23T00:59:12.010Z,99.90
2018-08-23T01:01:40.941Z,99.90
2018-08-23T01:04:09.353Z,99.90
2018-08-23T01:06:42.447Z,99.90
2018-08-23T01:14:08.717Z,99.90
2018-08-23T01:16:37.153Z,99.90
2018-08-23T01:19:10.982Z,99.90
2018-08-23T01:21:44.613Z,99.90
2018-08-23T01:24:13.014Z,99.90
2018-08-23T01:26:41.460Z,99.90
2018-08-23T01:31:43.661Z,99.90
2018-08-23T01:34:12.059Z,99.90
2018-08-23T01:36:40.553Z,99.90
2018-08-23T01:39:11.997Z,99.90
2018-08-23T01:41:40.412Z,99.90
2018-08-23T01:44:08.824Z,99.90
2018-08-23T01:46:41.460Z,99.90
2018-08-23T01:49:09.839Z,99.90
2018-08-23T01:51:38.233Z,99.90
2018-08-23T01:54:06.701Z,99.90
2018-08-23T01:56:35.106Z,99.90
2018-08-23T01:59:03.542Z,99.90
2018-08-23T02:01:31.967Z,99.90
2018-08-23T02:04:00.417Z,99.90
2018-08-23T02:06:33.844Z,99.90
2018-08-23T02:09:02.356Z,99.90
2018-08-23T02:11:30.815Z,99.90
2018-08-23T02:13:59.352Z,99.90
2018-08-23T02:16:36.746Z,99.90
2018-08-23T02:19:05.458Z,99.90
2018-08-23T02:21:33.859Z,99.90
2018-08-23T02:24:02.385Z,99.90
2018-08-23T02:26:30.778Z,99.90
2018-08-23T02:28:59.166Z,99.90
2018-08-23T02:31:27.633Z,99.90
2018-08-23T02:33:56.050Z,99.90
2018-08-23T02:36:24.465Z,99.90
2018-08-23T02:38:59.468Z,99.90
2018-08-23T02:41:28.162Z,99.90
2018-08-23T02:43:56.599Z,99.90
2018-08-23T02:46:25.037Z,99.90
2018-08-23T02:48:53.488Z,99.90
2018-08-23T02:51:37.678Z,99.90
2018-08-23T02:54:06.163Z,99.90
2018-08-23T02:56:35.378Z,99.90
2018-08-23T02:59:07.231Z,99.90
2018-08-23T03:01:40.295Z,99.90
2018-08-23T03:04:11.584Z,99.90
2018-08-23T03:06:57.687Z,99.90
2018-08-23T03:09:31.976Z,99.90
2018-08-23T03:12:01.673Z,99.90
2018-08-23T03:14:30.668Z,99.90
2018-08-23T03:17:34.094Z,99.90
2018-08-23T03:20:06.660Z,99.90
2018-08-23T03:22:35.555Z,99.90
2018-08-23T03:25:06.258Z,99.90
2018-08-23T03:27:34.706Z,99.90
2018-08-23T03:30:04.040Z,99.90
2018-08-23T03:32:32.657Z,99.90
2018-08-23T03:35:01.493Z,99.90
2018-08-23T03:37:29.901Z,99.90
2018-08-23T03:39:58.396Z,99.90
2018-08-23T03:42:27.300Z,99.90
2018-08-23T03:44:56.685Z,99.90
2018-08-23T03:47:25.497Z,99.90
2018-08-23T03:49:53.964Z,99.90
2018-08-23T03:52:23.852Z,99.90
2018-08-23T03:54:58.569Z,99.90
2018-08-23T03:57:32.435Z,99.90
2018-08-23T04:00:00.885Z,99.90
2018-08-23T04:02:29.332Z,99.90
2018-08-23T04:05:08.995Z,99.90
2018-08-23T04:07:38.643Z,99.90
2018-08-23T04:10:07.235Z,99.90
2018-08-23T04:12:36.593Z,99.90
2018-08-23T04:15:24.838Z,99.90
2018-08-23T04:17:53.297Z,99.90
2018-08-23T04:20:21.729Z,99.90
2018-08-23T04:22:50.185Z,99.90
2018-08-23T04:25:18.621Z,99.90
2018-08-23T04:27:47.031Z,99.90
2018-08-23T04:30:15.475Z,99.90
2018-08-23T04:32:50.349Z,99.90
2018-08-23T04:35:24.428Z,99.90
2018-08-23T04:37:52.861Z,99.90
2018-08-23T04:40:21.252Z,99.90
2018-08-23T04:42:49.649Z,99.90
2018-08-23T04:45:19.459Z,99.90
2018-08-23T04:47:53.472Z,99.90
2018-08-23T04:50:23.033Z,99.90
2018-08-23T04:52:51.444Z,99.90
2018-08-23T04:55:19.916Z,99.90
2018-08-23T04:57:48.350Z,99.90
2018-08-23T05:00:16.812Z,99.90
2018-08-23T05:02:45.211Z,99.90
2018-08-23T05:05:13.695Z,99.90
2018-08-23T05:07:42.133Z,99.90
2018-08-23T05:10:10.787Z,99.90
2018-08-23T05:12:39.226Z,99.90
2018-08-23T05:15:07.669Z,99.90
2018-08-23T05:17:36.126Z,99.90
2018-08-23T05:20:04.649Z,99.90
2018-08-23T05:22:33.085Z,99.90
2018-08-23T05:25:06.940Z,99.90
2018-08-23T05:27:49.750Z,99.90
2018-08-23T05:30:18.194Z,99.90
2018-08-23T05:32:46.606Z,99.90
2018-08-23T05:35:15.010Z,99.90
2018-08-23T05:37:43.448Z,99.90
2018-08-23T05:40:11.871Z,99.90
2018-08-23T05:42:52.664Z,99.90
2018-08-23T05:45:26.820Z,99.90
2018-08-23T05:47:55.233Z,99.90
2018-08-23T05:50:30.736Z,99.90
2018-08-23T05:52:59.160Z,99.90
2018-08-23T05:55:27.594Z,99.90
2018-08-23T05:57:56.338Z,99.90
2018-08-23T06:00:24.818Z,99.90
2018-08-23T06:02:53.275Z,99.90
2018-08-23T06:05:21.816Z,99.90
2018-08-23T06:07:50.351Z,99.90
2018-08-23T06:10:18.758Z,99.90
2018-08-23T06:12:47.179Z,99.90
2018-08-23T06:15:16.465Z,99.90
2018-08-23T06:17:45.492Z,99.90
2018-08-23T06:20:13.923Z,99.90
2018-08-23T06:22:42.358Z,99.90
2018-08-23T06:25:10.878Z,99.90
2018-08-23T06:27:39.267Z,99.90
2018-08-23T06:30:07.744Z,99.90
2018-08-23T06:32:36.206Z,99.90
2018-08-23T06:35:04.654Z,99.90
2018-08-23T06:37:33.253Z,99.90
2018-08-23T06:40:01.674Z,99.90
2018-08-23T06:42:45.288Z,99.90
2018-08-23T06:45:13.717Z,99.90
2018-08-23T06:47:43.989Z,99.90
2018-08-23T06:50:12.610Z,99.90
2018-08-23T06:52:46.347Z,99.90
2018-08-23T06:55:15.177Z,99.90
2018-08-23T06:57:47.188Z,99.90
2018-08-23T07:00:20.857Z,99.90
2018-08-23T07:02:49.727Z,99.90
2018-08-23T07:05:18.806Z,99.90
2018-08-23T07:07:47.217Z,99.90
2018-08-23T07:10:15.759Z,99.90
2018-08-23T07:12:44.255Z,99.90
2018-08-23T07:15:12.923Z,99.90
2018-08-23T07:17:41.424Z,99.90
2018-08-23T07:20:12.456Z,99.90
2018-08-23T07:22:40.920Z,99.90
2018-08-23T07:25:12.268Z,99.90
2018-08-23T07:27:40.724Z,99.90
2018-08-23T07:30:15.235Z,99.90
2018-08-23T07:32:44.945Z,99.90
2018-08-23T07:35:15.540Z,99.90
2018-08-23T07:37:45.479Z,99.90
2018-08-23T07:40:15.281Z,99.90
2018-08-23T07:42:44.805Z,99.90
2018-08-23T07:45:13.503Z,99.90
2018-08-23T07:47:45.029Z,99.90
2018-08-23T07:50:13.431Z,99.90
2018-08-23T07:52:47.366Z,99.90
2018-08-23T07:55:15.747Z,99.90
2018-08-23T07:57:44.432Z,99.90
2018-08-23T08:00:35.949Z,99.90
2018-08-23T08:03:04.755Z,99.90
2018-08-23T08:05:35.523Z,99.90
2018-08-23T08:08:04.049Z,99.90
2018-08-23T08:10:35.416Z,99.90
2018-08-23T08:13:03.957Z,99.90
2018-08-23T08:15:33.059Z,99.90
2018-08-23T08:18:06.975Z,99.90
2018-08-23T08:20:35.476Z,99.90
2018-08-23T08:23:04.038Z,99.90
2018-08-23T08:25:33.120Z,99.90
2018-08-23T08:28:01.556Z,99.90
2018-08-23T08:30:41.152Z,99.90
2018-08-23T08:33:11.551Z,99.90
2018-08-23T08:35:42.539Z,99.90
2018-08-23T08:38:11.312Z,99.90
2018-08-23T08:40:39.734Z,99.90
2018-08-23T08:43:08.152Z,99.90
2018-08-23T08:48:13.492Z,99.90
2018-08-23T08:50:47.370Z,99.90
2018-08-23T08:53:15.848Z,99.90
2018-08-23T08:55:44.338Z,99.90
2018-08-23T08:58:12.858Z,99.90
2018-08-23T09:00:50.606Z,99.90
2018-08-23T09:03:20.554Z,99.90
2018-08-23T09:05:49.087Z,99.90
2018-08-23T09:08:17.534Z,99.90
2018-08-23T09:10:45.942Z,99.90
2018-08-23T09:13:14.430Z,99.90
2018-08-23T09:15:44.282Z,99.90
2018-08-23T09:18:12.867Z,99.90
2018-08-23T09:20:41.261Z,99.90
2018-08-23T09:23:09.670Z,99.90
2018-08-23T09:25:41.015Z,99.90
2018-08-23T09:28:09.419Z,99.90
2018-08-23T09:30:37.901Z,99.90
2018-08-23T09:33:08.502Z,99.90
2018-08-23T09:35:37.031Z,99.90
2018-08-23T09:38:14.775Z,99.90
2018-08-23T09:40:43.226Z,99.90
2018-08-23T09:43:11.678Z,99.90
2018-08-23T09:45:40.525Z,99.90
2018-08-23T09:48:09.263Z,99.90
2018-08-23T09:50:37.797Z,99.90
2018-08-23T09:53:13.987Z,99.90
2018-08-23T09:55:44.238Z,99.90
2018-08-23T09:58:18.154Z,99.90
2018-08-23T10:00:52.041Z,99.90
2018-08-23T10:04:26.077Z,99.90
2018-08-23T10:07:02.126Z,99.90
2018-08-23T10:09:31.806Z,99.90
2018-08-23T10:12:05.391Z,99.90
2018-08-23T10:14:39.090Z,99.90
2018-08-23T10:17:12.834Z,99.90
2018-08-23T10:19:46.557Z,99.90
2018-08-23T10:22:22.340Z,99.90
2018-08-23T10:24:51.098Z,99.90
2018-08-23T10:27:19.529Z,99.90
2018-08-23T10:29:47.919Z,99.90
2018-08-23T10:32:16.415Z,99.90
2018-08-23T10:34:44.826Z,99.90
2018-08-23T10:37:13.216Z,99.90
2018-08-23T10:39:41.746Z,99.90
2018-08-23T10:42:15.259Z,99.90
2018-08-23T10:44:44.028Z,99.90
2018-08-23T10:47:16.661Z,99.90
2018-08-23T10:49:45.119Z,99.90
2018-08-23T10:52:13.520Z,99.90
2018-08-23T10:54:41.976Z,99.90
2018-08-23T10:57:14.662Z,99.90
2018-08-23T10:59:43.071Z,99.90
2018-08-23T11:02:11.470Z,99.90
2018-08-23T11:04:39.897Z,99.90
2018-08-23T11:07:08.338Z,99.90
2018-08-23T11:09:42.225Z,99.90
2018-08-23T11:12:14.849Z,99.90
2018-08-23T11:14:43.312Z,99.90
2018-08-23T11:17:17.207Z,99.90
2018-08-23T11:19:50.967Z,99.90
2018-08-23T11:22:22.025Z,99.00
2018-08-23T11:24:50.439Z,97.50
2018-08-23T11:27:18.906Z,98.00
2018-08-23T11:29:47.319Z,97.50
2018-08-23T11:32:15.729Z,98.20
2018-08-23T11:34:44.185Z,98.20
2018-08-23T11:37:12.586Z,98.10
2018-08-23T11:39:40.999Z,96.90
2018-08-23T11:42:09.444Z,97.50
2018-08-23T11:44:37.880Z,96.90
2018-08-23T11:47:06.319Z,96.70
2018-08-23T11:49:34.785Z,97.40
2018-08-23T11:52:03.181Z,97.00
2018-08-23T11:56:59.737Z,94.00
2018-08-23T11:59:28.220Z,92.30
2018-08-23T12:01:56.634Z,90.70
2018-08-23T12:04:25.093Z,87.70
2018-08-23T12:06:56.445Z,83.10
2018-08-23T12:09:30.307Z,80.00
2018-08-23T12:11:58.731Z,77.80
2018-08-23T12:14:27.152Z,75.80
2018-08-23T12:16:55.644Z,75.60
2018-08-23T12:19:24.078Z,68.80
2018-08-23T12:21:52.585Z,68.80
2018-08-23T12:24:21.369Z,67.20
2018-08-23T12:26:49.773Z,67.10
2018-08-23T12:29:18.253Z,65.60
2018-08-23T12:31:46.974Z,63.60
2018-08-23T12:34:25.390Z,63.10
2018-08-23T12:36:59.157Z,64.00
2018-08-23T12:40:34.068Z,64.90
2018-08-23T12:43:04.470Z,66.20
2018-08-23T12:45:32.973Z,68.30
2018-08-23T12:48:01.754Z,70.10
2018-08-23T12:50:30.176Z,72.00
2018-08-23T12:52:58.626Z,73.30
2018-08-23T12:55:27.101Z,73.10
2018-08-23T12:57:55.584Z,74.00
2018-08-23T13:00:24.016Z,71.00
2018-08-23T13:02:52.601Z,71.00
2018-08-23T13:05:20.914Z,71.50
2018-08-23T13:07:49.373Z,72.70
2018-08-23T13:10:17.798Z,72.80
2018-08-23T13:12:46.226Z,73.90
2018-08-23T13:15:14.700Z,73.10
2018-08-23T13:17:43.170Z,73.40
2018-08-23T13:20:11.596Z,75.80
2018-08-23T13:22:41.168Z,76.10
2018-08-23T13:25:12.208Z,78.90
2018-08-23T13:27:40.743Z,77.80
2018-08-23T13:30:09.093Z,76.70
2018-08-23T13:32:37.556Z,77.80
2018-08-23T13:35:06.218Z,77.40
2018-08-23T13:37:34.723Z,77.70
2018-08-23T13:40:03.194Z,79.30
2018-08-23T13:42:32.354Z,78.90
2018-08-23T13:45:00.905Z,79.30
2018-08-23T13:47:29.383Z,81.30
2018-08-23T13:49:57.830Z,79.40
2018-08-23T13:52:26.257Z,79.60
2018-08-23T13:54:55.009Z,79.30
2018-08-23T13:57:23.523Z,77.80
2018-08-23T13:59:51.966Z,78.10
2018-08-23T14:02:20.523Z,79.50
2018-08-23T14:04:48.865Z,80.60
2018-08-23T14:07:17.339Z,78.90
2018-08-23T14:09:45.769Z,78.20
2018-08-23T14:12:14.163Z,77.70
2018-08-23T14:14:42.566Z,76.40
2018-08-23T14:17:11.020Z,75.50
2018-08-23T14:19:39.433Z,75.50
2018-08-23T14:22:07.867Z,76.10
2018-08-23T14:24:36.314Z,74.90
2018-08-23T14:27:04.828Z,75.90
2018-08-23T14:29:33.199Z,78.10
2018-08-23T14:32:01.847Z,76.80
2018-08-23T14:34:30.281Z,76.00
2018-08-23T14:36:58.722Z,77.80
2018-08-23T14:39:27.299Z,77.90
2018-08-23T14:41:56.375Z,77.70
2018-08-23T14:44:24.997Z,77.80
2018-08-23T14:46:58.560Z,77.60
2018-08-23T14:49:32.276Z,78.20
2018-08-23T14:52:00.732Z,77.40
2018-08-23T14:54:34.520Z,76.60
2018-08-23T14:57:08.252Z,77.50
2018-08-23T14:59:36.849Z,75.40
2018-08-23T15:02:05.611Z,75.90
2018-08-23T15:04:34.123Z,76.40
2018-08-23T15:07:02.546Z,76.50
2018-08-23T15:09:30.966Z,77.30
2018-08-23T15:12:00.622Z,78.70
2018-08-23T15:14:29.436Z,79.00
2018-08-23T15:16:58.025Z,77.80
2018-08-23T15:19:26.539Z,77.40
2018-08-23T15:21:54.979Z,79.40
2018-08-23T15:24:23.428Z,77.30
2018-08-23T15:26:52.017Z,77.80
2018-08-23T15:29:20.411Z,78.70
2018-08-23T15:34:17.126Z,80.50
2018-08-23T15:36:45.574Z,82.60
2018-08-23T15:39:15.200Z,83.90
2018-08-23T15:41:44.987Z,83.50
2018-08-23T15:44:14.080Z,83.00
2018-08-23T15:46:44.668Z,84.60
2018-08-23T15:49:13.325Z,85.60
2018-08-23T15:51:42.319Z,86.70
2018-08-23T15:54:11.252Z,87.80
2018-08-23T15:56:40.540Z,87.30
2018-08-23T15:59:09.025Z,87.90
2018-08-23T16:01:37.538Z,89.00
2018-08-23T16:04:06.039Z,87.20
2018-08-23T16:06:34.554Z,88.10
2018-08-23T16:09:03.105Z,89.60
2018-08-23T16:11:31.531Z,90.30
2018-08-23T16:13:59.992Z,90.60
2018-08-23T16:16:33.822Z,90.50
2018-08-23T16:19:07.908Z,90.90
2018-08-23T16:21:38.492Z,90.10
2018-08-23T16:24:07.040Z,90.50
2018-08-23T16:26:40.748Z,89.40
2018-08-23T16:29:09.222Z,88.50
2018-08-23T16:31:37.722Z,90.10
2018-08-23T16:34:06.241Z,90.70
2018-08-23T16:36:34.661Z,90.70
2018-08-23T16:41:31.427Z,92.10
2018-08-23T16:43:59.903Z,92.40
2018-08-23T16:46:28.490Z,93.40
2018-08-23T16:48:56.900Z,93.90
2018-08-23T16:51:25.349Z,94.10
2018-08-23T16:53:53.785Z,95.60
2018-08-23T16:56:22.394Z,95.80
2018-08-23T16:58:50.876Z,96.60
2018-08-23T17:01:19.331Z,96.90
2018-08-23T17:03:52.973Z,96.90
2018-08-23T17:06:22.653Z,97.60
2018-08-23T17:08:51.095Z,98.50
2018-08-23T17:11:19.630Z,99.00
2018-08-23T17:13:48.159Z,99.90
2018-08-23T17:16:22.056Z,99.90
2018-08-23T17:18:51.098Z,99.90
2018-08-23T17:21:19.604Z,99.90
2018-08-23T17:26:16.412Z,99.90
2018-08-23T17:28:44.878Z,99.90
2018-08-23T17:31:13.487Z,99.90
2018-08-23T17:33:42.362Z,99.90
2018-08-23T17:36:10.876Z,99.90
2018-08-23T17:41:07.598Z,99.90
2018-08-23T17:43:36.044Z,99.90
2018-08-23T17:46:04.588Z,99.90
2018-08-23T17:48:33.526Z,99.90
2018-08-23T17:55:58.335Z,99.90
2018-08-23T17:58:26.822Z,99.90
2018-08-23T18:00:55.588Z,99.90
2018-08-23T18:05:52.556Z,99.90
2018-08-23T18:08:21.068Z,99.90
2018-08-23T18:10:50.180Z,99.90
2018-08-23T18:15:51.996Z,99.90
2018-08-23T18:18:20.524Z,99.90
2018-08-23T18:20:49.077Z,99.90
2018-08-23T18:25:46.168Z,99.90
2018-08-23T18:28:14.834Z,99.90
2018-08-23T18:30:43.397Z,99.90
2018-08-23T18:33:13.128Z,99.90
2018-08-23T18:38:10.048Z,99.90
2018-08-23T18:40:38.613Z,99.90
2018-08-23T18:43:08.185Z,99.90
2018-08-23T18:45:37.358Z,99.90
2018-08-23T18:48:06.979Z,99.90
2018-08-23T18:50:35.867Z,99.90
2018-08-23T18:53:04.665Z,99.90
2018-08-23T18:58:01.713Z,99.90
2018-08-23T19:05:27.745Z,99.90
2018-08-23T19:07:56.982Z,99.90
2018-08-23T19:10:25.871Z,99.90
2018-08-23T19:12:54.448Z,99.90
2018-08-23T19:15:28.365Z,99.90
2018-08-23T19:17:57.048Z,99.90
2018-08-23T19:20:26.198Z,99.90
2018-08-23T19:22:54.792Z,99.90
2018-08-23T19:25:23.440Z,99.90
2018-08-23T19:27:52.938Z,99.90
2018-08-23T19:30:21.853Z,99.90
2018-08-23T19:35:18.861Z,99.90
2018-08-23T19:37:47.652Z,99.90
2018-08-23T19:42:44.847Z,99.90
2018-08-23T19:45:14.111Z,99.90
2018-08-23T19:47:48.421Z,99.90
2018-08-23T19:50:17.841Z,99.90
2018-08-23T19:52:46.448Z,99.90
2018-08-23T19:55:17.401Z,99.90
2018-08-23T19:57:46.067Z,99.90
2018-08-23T20:00:15.469Z,99.90
2018-08-23T20:02:45.955Z,99.90
2018-08-23T20:05:14.751Z,99.90
2018-08-23T20:07:43.758Z,99.90
2018-08-23T20:10:12.845Z,99.90
2018-08-23T20:12:41.873Z,99.90
2018-08-23T20:17:40.029Z,99.90
2018-08-23T20:20:09.476Z,99.90
2018-08-23T20:22:38.453Z,99.90
2018-08-23T20:25:07.147Z,99.90
2018-08-23T20:27:38.626Z,99.90
2018-08-23T20:30:07.373Z,99.90
2018-08-23T20:32:35.963Z,99.90
2018-08-23T20:35:04.497Z,99.90
2018-08-23T20:37:33.057Z,99.90
2018-08-23T20:40:01.946Z,99.90
2018-08-23T20:42:30.809Z,99.90
2018-08-23T20:44:59.332Z,99.90
2018-08-23T20:47:29.520Z,99.90
2018-08-23T20:49:58.077Z,99.90
2018-08-23T20:52:27.014Z,99.90
2018-08-23T20:57:23.742Z,99.90
2018-08-23T20:59:52.304Z,99.90
2018-08-23T21:02:21.721Z,99.90
2018-08-23T21:04:50.236Z,99.90
2018-08-23T21:07:18.909Z,99.90
2018-08-23T21:09:47.389Z,99.90
2018-08-23T21:12:15.883Z,99.90
2018-08-23T21:14:44.352Z,99.90
2018-08-23T21:17:12.854Z,99.90
2018-08-23T21:19:42.215Z,99.90
2018-08-23T21:22:10.832Z,99.90
2018-08-23T21:24:39.607Z,99.90
2018-08-23T21:27:08.067Z,99.90
2018-08-23T21:29:36.553Z,99.90
2018-08-23T21:34:33.141Z,99.90
2018-08-23T21:37:01.942Z,99.90
2018-08-23T21:39:30.424Z,99.90
2018-08-23T21:41:58.868Z,99.90
2018-08-23T21:44:27.367Z,99.90
2018-08-23T21:46:55.909Z,99.90
2018-08-23T21:49:24.349Z,99.90
2018-08-23T21:54:21.018Z,99.90
2018-08-23T21:56:49.453Z,99.90
2018-08-23T21:59:17.881Z,99.90
2018-08-23T22:01:46.334Z,99.90
2018-08-23T22:04:14.746Z,99.90
2018-08-23T22:06:43.164Z,99.90
2018-08-23T22:09:11.573Z,99.90
2018-08-23T22:11:39.991Z,99.90
2018-08-23T22:14:08.430Z,99.90
2018-08-23T22:16:36.866Z,99.90
2018-08-23T22:19:05.400Z,99.90
2018-08-23T22:21:33.815Z,99.90
2018-08-23T22:24:02.227Z,99.90
2018-08-23T22:26:30.641Z,99.90
2018-08-23T22:28:59.093Z,99.90
2018-08-23T22:31:27.502Z,99.90
2018-08-23T22:33:55.964Z,99.90
2018-08-23T22:36:24.397Z,99.90
2018-08-23T22:38:52.804Z,99.90
2018-08-23T22:41:21.189Z,99.90
2018-08-23T22:43:49.640Z,99.90
2018-08-23T22:46:18.061Z,99.90
2018-08-23T22:48:46.440Z,99.90
2018-08-23T22:51:14.848Z,99.90
2018-08-23T22:53:43.340Z,99.90
2018-08-23T22:58:40.036Z,99.90
2018-08-23T23:01:08.428Z,99.90
2018-08-23T23:03:42.036Z,99.90
2018-08-23T23:06:10.482Z,99.90
2018-08-23T23:08:38.865Z,99.90
2018-08-23T23:11:07.280Z,99.90
2018-08-23T23:13:35.653Z,99.90
2018-08-23T23:16:04.177Z,99.90
2018-08-23T23:18:32.592Z,99.90
2018-08-23T23:21:01.074Z,99.90
2018-08-23T23:23:29.487Z,99.90
2018-08-23T23:25:57.899Z,99.90
2018-08-23T23:28:26.276Z,99.90
2018-08-23T23:30:54.681Z,99.90
2018-08-23T23:33:23.083Z,99.90
2018-08-23T23:35:51.441Z,99.90
2018-08-23T23:38:19.828Z,99.90
2018-08-23T23:40:48.237Z,99.90
2018-08-23T23:43:16.614Z,99.90
2018-08-23T23:45:45.007Z,99.90
2018-08-23T23:48:13.441Z,99.90
2018-08-23T23:50:41.841Z,99.90
2018-08-23T23:53:10.296Z,99.90
2018-08-23T23:55:38.743Z,99.90
2018-08-23T23:58:07.140Z,99.90
